FW1991 Weather Reports


Display with metric or nautical units.
time (UTC)temp
F
wind
direction
speed
MPH
gust
MPH
rain 1hr
in
rain 24hr
in
rain mn
in
humidity
%
barometer
mb
20210921064544 79 158 1.0 10.0 0.00 0.00 0.00 85 1013.7
20210921063037 79 157 2.0 9.0 0.00 0.00 0.00 84 1013.7
20210921061546 79 188 2.0 8.0 0.00 0.00 0.00 82 1013.8
20210921060045 80 311 0.0 8.0 0.00 0.00 0.00 80 1013.6
20210921054539 80 188 2.0 6.0 0.00 0.00 0.00 79 1013.5
20210921053051 81 198 1.0 6.0 0.00 0.00 0.00 77 1013.5
20210921051549 81 188 1.0 9.0 0.00 0.00 0.00 76 1013.4
20210921050053 82 231 3.0 10.0 0.00 0.00 0.00 74 1013.4
20210921044552 82 191 2.0 7.0 0.00 0.00 0.00 72 1013.3
20210921043022 83 192 2.0 9.0 0.00 0.00 0.00 71 1013.3
20210921041518 83 227 3.0 8.0 0.00 0.00 0.00 69 1013.2
20210921040037 84 175 2.0 10.0 0.00 0.00 0.00 67 1013.1
20210921034519 84 128 2.0 11.0 0.00 0.00 0.00 64 1013.1
20210921033036 85 196 1.0 5.0 0.00 0.00 0.00 62 1012.7
20210921031540 86 112 0.0 5.0 0.00 0.00 0.00 59 1012.6
20210921030023 86 217 1.0 6.0 0.00 0.00 0.00 57 1012.3
20210921024513 87 114 0.0 6.0 0.00 0.00 0.00 55 1012.0
20210921023157 87 213 1.0 5.0 0.00 0.00 0.00 52 1011.8
20210921021514 88 169 0.0 3.0 0.00 0.00 0.00 50 1011.4
20210921020013 88 34 1.0 6.0 0.00 0.00 0.00 49 1011.2
20210921014518 88 123 0.0 6.0 0.00 0.00 0.00 48 1011.0
20210921013014 89 153 0.0 3.0 0.00 0.00 0.00 47 1010.9
20210921011520 90 165 0.0 2.0 0.00 0.00 0.00 46 1010.7
20210921010035 90 74 0.0 2.0 0.00 0.00 0.00 45 1010.4
20210921004507 91 127 0.0 2.0 0.00 0.00 0.00 43 1010.5
20210921003028 92 193 0.0 3.0 0.00 0.00 0.00 43 1010.4
20210921001509 93 171 0.0 5.0 0.00 0.00 0.00 42 1010.3
20210921000016 94 207 0.0 4.0 0.00 0.00 0.00 41 1010.3
20210920234514 95 217 0.0 7.0 0.00 0.00 0.00 39 1010.3
20210920233003 96 196 1.0 7.0 0.00 0.00 0.00 39 1010.2
20210920231502 97 165 1.0 5.0 0.00 0.00 0.00 38 1010.1
20210920224648 99 165 1.0 8.0 0.00 0.00 0.00 36 1010.1
20210920223232 100 214 0.0 5.0 0.00 0.00 0.00 36 1010.2
20210920221636 101 205 3.0 10.0 0.00 0.00 0.00 35 1010.3
20210920220131 101 192 2.0 10.0 0.00 0.00 0.00 35 1010.2
20210920214637 102 220 2.0 7.0 0.00 0.00 0.00 34 1010.3
20210920213137 102 124 1.0 4.0 0.00 0.00 0.00 34 1010.3
20210920211730 101 138 0.0 9.0 0.00 0.00 0.00 35 1010.4
20210920210210 102 79 1.0 8.0 0.00 0.00 0.00 33 1010.6
20210920204636 102 103 1.0 8.0 0.00 0.00 0.00 34 1010.6
20210920203052 102 178 2.0 7.0 0.00 0.00 0.00 35 1010.8
20210920201743 101 202 1.0 9.0 0.00 0.00 0.00 36 1010.8
20210920200108 102 229 2.0 8.0 0.00 0.00 0.00 36 1011.0
20210920194645 101 223 1.0 8.0 0.00 0.00 0.00 38 1011.0
20210920193056 101 191 1.0 8.0 0.00 0.00 0.00 38 1011.2
20210920191606 100 175 2.0 14.0 0.00 0.00 0.00 38 1011.4
20210920190113 99 99 2.0 11.0 0.00 0.00 0.00 39 1011.7
20210920184614 98 217 2.0 9.0 0.00 0.00 0.00 40 1011.8
20210920183059 98 173 2.0 8.0 0.00 0.00 0.00 42 1012.2
20210920181557 97 148 1.0 9.0 0.00 0.00 0.00 45 1012.2
20210920180032 97 209 2.0 9.0 0.00 0.00 0.00 47 1012.4
20210920174544 96 207 2.0 7.0 0.00 0.00 0.00 47 1012.6
20210920173019 95 221 2.0 9.0 0.00 0.00 0.00 48 1012.7
20210920171540 94 198 1.0 11.0 0.00 0.00 0.00 51 1012.9
20210920170012 93 172 2.0 8.0 0.00 0.00 0.00 52 1013.1
20210920164505 91 177 1.0 9.0 0.00 0.00 0.00 55 1013.2
20210920163214 90 223 3.0 10.0 0.00 0.00 0.00 55 1013.3
20210920161645 89 68 2.0 11.0 0.00 0.00 0.00 57 1013.3
20210920160208 88 209 2.0 6.0 0.00 0.00 0.00 63 1013.3
20210920154639 86 172 1.0 7.0 0.00 0.00 0.00 67 1013.2
20210920153122 85 201 3.0 9.0 0.00 0.00 0.00 69 1013.1
20210920151627 83 230 1.0 6.0 0.00 0.00 0.00 73 1013.1
20210920150113 80 192 0.0 8.0 0.00 0.00 0.00 79 1012.9
20210920144554 78 204 0.0 7.0 0.00 0.00 0.00 84 1012.8
20210920143039 77 231 0.0 7.0 0.00 0.00 0.00 86 1012.8
20210920141553 76 190 1.0 3.0 0.00 0.00 0.00 88 1012.8
20210920140031 75 151 2.0 5.0 0.00 0.00 0.00 89 1012.7
20210920134602 74 172 1.0 6.0 0.00 0.00 0.00 91 1012.5
20210920133042 74 190 0.0 7.0 0.00 0.00 0.00 91 1012.4
20210920131537 73 231 0.0 4.0 0.00 0.00 0.00 91 1012.2
20210920130026 73 196 0.0 4.0 0.00 0.00 0.00 91 1012.2
20210920124552 73 193 0.0 3.0 0.00 0.00 0.00 90 1012.2
20210920123109 73 227 0.0 3.0 0.00 0.00 0.00 89 1012.2
20210920121525 73 205 0.0 4.0 0.00 0.00 0.00 89 1012.1
20210920120028 74 238 0.0 5.0 0.00 0.00 0.00 89 1011.9
20210920114539 74 229 0.0 5.0 0.00 0.00 0.00 88 1011.9
20210920113026 74 184 0.0 4.0 0.00 0.00 0.00 87 1011.7
20210920111534 74 111 0.0 6.0 0.00 0.00 0.00 86 1011.6
20210920110016 74 196 0.0 5.0 0.00 0.00 0.00 86 1011.5
20210920104532 74 216 1.0 7.0 0.00 0.00 0.00 85 1011.5
20210920103025 75 213 0.0 4.0 0.00 0.00 0.00 84 1011.5
20210920101522 75 263 0.0 4.0 0.00 0.00 0.00 84 1011.4
20210920100014 75 213 0.0 4.0 0.00 0.00 0.00 84 1011.3
20210920094518 75 176 1.0 6.0 0.00 0.00 0.00 83 1011.4
20210920093021 75 209 0.0 4.0 0.00 0.00 0.00 83 1011.5
20210920091507 76 230 0.0 4.0 0.00 0.00 0.00 83 1011.5
20210920090018 76 144 0.0 5.0 0.00 0.00 0.00 82 1011.5
20210920084505 76 185 1.0 5.0 0.00 0.00 0.00 82 1011.7
20210920083003 76 203 1.0 4.0 0.00 0.00 0.00 82 1011.7
20210920081502 76 217 1.0 5.0 0.00 0.00 0.00 82 1011.8
20210920080118 77 207 0.0 6.0 0.00 0.00 0.00 81 1011.7
20210920074611 77 196 0.0 5.0 0.00 0.00 0.00 81 1011.9
20210920073242 77 173 0.0 10.0 0.00 0.00 0.00 80 1012.1
20210920071619 78 198 0.0 6.0 0.00 0.00 0.00 79 1012.0
20210920070114 78 180 1.0 8.0 0.00 0.00 0.00 79 1012.1